createdAt,value
2018-09-27T00:00:35.319Z,53.90
2018-09-27T00:02:38.220Z,54.00
2018-09-27T00:04:41.102Z,54.10
2018-09-27T00:06:43.979Z,54.20
2018-09-27T00:08:46.917Z,54.20
2018-09-27T00:10:49.831Z,54.20
2018-09-27T00:12:52.708Z,54.20
2018-09-27T00:14:55.616Z,54.20
2018-09-27T00:16:59.268Z,54.30
2018-09-27T00:19:02.144Z,54.30
2018-09-27T00:21:05.169Z,54.20
2018-09-27T00:23:08.082Z,54.20
2018-09-27T00:25:11.025Z,54.30
2018-09-27T00:27:14.029Z,54.30
2018-09-27T00:29:17.854Z,54.30
2018-09-27T00:31:22.297Z,54.40
2018-09-27T00:33:25.340Z,54.30
2018-09-27T00:35:28.248Z,54.30
2018-09-27T00:37:31.601Z,54.40
2018-09-27T00:39:35.256Z,54.40
2018-09-27T00:41:38.155Z,54.50
2018-09-27T00:43:41.398Z,54.60
2018-09-27T00:45:45.141Z,54.70
2018-09-27T00:47:48.042Z,54.60
2018-09-27T00:49:50.917Z,54.70
2018-09-27T00:51:54.008Z,54.70
2018-09-27T00:53:58.413Z,54.70
2018-09-27T00:56:01.312Z,54.70
2018-09-27T00:58:05.003Z,54.80
2018-09-27T01:00:09.424Z,54.70
2018-09-27T01:02:12.324Z,54.70
2018-09-27T01:04:16.620Z,54.80
2018-09-27T01:06:21.029Z,54.80
2018-09-27T01:08:23.894Z,54.80
2018-09-27T01:10:26.787Z,54.80
2018-09-27T01:12:29.671Z,54.80
2018-09-27T01:14:32.547Z,54.80
2018-09-27T01:16:35.633Z,54.80
2018-09-27T01:18:38.560Z,54.90
2018-09-27T01:20:42.244Z,55.00
2018-09-27T01:22:45.353Z,54.90
2018-09-27T01:24:49.031Z,55.00
2018-09-27T01:26:51.966Z,55.00
2018-09-27T01:28:55.741Z,55.10
2018-09-27T01:30:58.658Z,55.00
2018-09-27T01:33:01.572Z,55.20
2018-09-27T01:35:05.394Z,55.70
2018-09-27T01:37:09.069Z,55.30
2018-09-27T01:39:12.078Z,55.20
2018-09-27T01:41:15.984Z,55.40
2018-09-27T01:43:19.657Z,55.40
2018-09-27T01:45:22.581Z,55.30
2018-09-27T01:47:25.524Z,55.30
2018-09-27T01:49:29.211Z,55.60
2018-09-27T01:51:32.128Z,55.50
2018-09-27T01:53:36.050Z,55.60
2018-09-27T01:55:38.961Z,55.60
2018-09-27T01:57:41.876Z,55.60
2018-09-27T01:59:44.817Z,55.60
2018-09-27T02:01:47.758Z,55.70
2018-09-27T02:03:51.447Z,55.70
2018-09-27T02:05:55.207Z,55.70
2018-09-27T02:07:58.120Z,55.70
2018-09-27T02:10:01.045Z,55.70
2018-09-27T02:12:04.214Z,55.70
2018-09-27T02:14:07.928Z,55.80
2018-09-27T02:16:10.855Z,55.80
2018-09-27T02:18:13.904Z,55.80
2018-09-27T02:20:16.858Z,55.80
2018-09-27T02:22:20.539Z,55.90
2018-09-27T02:24:25.002Z,55.80
2018-09-27T02:26:27.932Z,55.80
2018-09-27T02:28:30.849Z,55.80
2018-09-27T02:30:33.803Z,55.90
2018-09-27T02:32:36.721Z,56.00
2018-09-27T02:34:39.630Z,56.00
2018-09-27T02:36:42.584Z,56.00
2018-09-27T02:38:45.495Z,56.10
2018-09-27T02:40:48.409Z,56.10
2018-09-27T02:42:51.360Z,56.10
2018-09-27T02:44:54.397Z,56.80
2018-09-27T02:46:58.093Z,56.20
2018-09-27T02:49:01.813Z,56.20
2018-09-27T02:51:05.539Z,56.20
2018-09-27T02:53:08.457Z,56.10
2018-09-27T02:55:12.205Z,56.20
2018-09-27T02:57:15.228Z,56.20
2018-09-27T02:59:18.129Z,56.20
2018-09-27T03:01:22.050Z,57.00
2018-09-27T03:03:25.712Z,56.40
2018-09-27T03:05:28.700Z,56.30
2018-09-27T03:07:31.671Z,56.30
2018-09-27T03:09:34.597Z,56.40
2018-09-27T03:11:38.263Z,56.60
2018-09-27T03:13:41.253Z,56.50
2018-09-27T03:15:44.937Z,57.30
2018-09-27T03:17:47.852Z,56.60
2018-09-27T03:19:51.768Z,56.60
2018-09-27T03:21:54.696Z,56.60
2018-09-27T03:23:57.614Z,56.50
2018-09-27T03:26:01.438Z,56.60
2018-09-27T03:28:04.356Z,56.50
2018-09-27T03:30:07.272Z,56.60
2018-09-27T03:32:11.725Z,56.60
2018-09-27T03:34:14.645Z,56.60
2018-09-27T03:36:17.588Z,56.60
2018-09-27T03:38:20.647Z,56.60
2018-09-27T03:40:24.336Z,57.10
2018-09-27T03:42:28.016Z,56.70
2018-09-27T03:44:31.162Z,57.30
2018-09-27T03:46:34.935Z,56.80
2018-09-27T03:48:37.841Z,56.80
2018-09-27T03:50:41.018Z,56.80
2018-09-27T03:52:44.680Z,56.90
2018-09-27T03:54:47.608Z,57.60
2018-09-27T03:56:50.784Z,57.70
2018-09-27T03:58:54.448Z,57.90
2018-09-27T04:00:57.577Z,57.90
2018-09-27T04:03:02.245Z,58.00
2018-09-27T04:05:05.129Z,57.90
2018-09-27T04:07:08.053Z,57.90
2018-09-27T04:09:11.768Z,58.00
2018-09-27T04:11:14.680Z,57.90
2018-09-27T04:13:17.652Z,58.00
2018-09-27T04:15:21.640Z,58.10
2018-09-27T04:17:24.552Z,58.10
2018-09-27T04:19:27.489Z,58.20
2018-09-27T04:21:31.190Z,58.30
2018-09-27T04:23:34.856Z,58.30
2018-09-27T04:25:37.760Z,58.30
2018-09-27T04:27:41.536Z,58.30
2018-09-27T04:29:45.232Z,58.40
2018-09-27T04:31:48.150Z,58.30
2018-09-27T04:33:52.083Z,58.40
2018-09-27T04:35:55.736Z,58.40
2018-09-27T04:37:58.666Z,58.40
2018-09-27T04:40:01.625Z,58.40
2018-09-27T04:42:05.322Z,58.30
2018-09-27T04:44:09.007Z,58.30
2018-09-27T04:46:12.715Z,58.40
2018-09-27T04:48:15.653Z,58.30
2018-09-27T04:50:18.560Z,58.40
2018-09-27T04:52:22.034Z,58.40
2018-09-27T04:54:24.972Z,58.40
2018-09-27T04:56:27.896Z,58.50
2018-09-27T04:58:30.926Z,58.50
2018-09-27T05:00:34.611Z,58.60
2018-09-27T05:02:38.292Z,58.60
2018-09-27T05:04:41.239Z,58.60
2018-09-27T05:06:44.152Z,58.70
2018-09-27T05:08:47.357Z,58.60
2018-09-27T05:10:51.193Z,58.60
2018-09-27T05:12:54.233Z,58.60
2018-09-27T05:14:57.616Z,58.60
2018-09-27T05:17:00.745Z,58.70
2018-09-27T05:19:04.415Z,58.80
2018-09-27T05:21:07.336Z,58.80
2018-09-27T05:23:10.516Z,58.80
2018-09-27T05:25:14.281Z,58.90
2018-09-27T05:27:17.259Z,58.90
2018-09-27T05:29:20.197Z,58.90
2018-09-27T05:31:23.104Z,59.00
2018-09-27T05:33:26.078Z,59.10
2018-09-27T05:35:29.776Z,59.20
2018-09-27T05:37:32.708Z,59.30
2018-09-27T05:39:35.709Z,59.30
2018-09-27T05:41:38.725Z,59.20
2018-09-27T05:43:41.628Z,59.40
2018-09-27T05:45:44.555Z,59.30
2018-09-27T05:47:48.360Z,59.50
2018-09-27T05:49:52.090Z,59.50
2018-09-27T05:51:55.721Z,59.60
2018-09-27T05:53:59.152Z,59.60
2018-09-27T05:56:02.907Z,59.70
2018-09-27T05:58:06.516Z,59.70
2018-09-27T06:00:09.937Z,59.70
2018-09-27T06:02:13.614Z,59.90
2018-09-27T06:04:16.533Z,59.80
2018-09-27T06:06:19.469Z,59.90
2018-09-27T06:08:22.398Z,60.00
2018-09-27T06:10:26.367Z,60.80
2018-09-27T06:12:29.398Z,60.20
2018-09-27T06:14:32.317Z,60.30
2018-09-27T06:16:35.341Z,60.30
2018-09-27T06:18:38.648Z,60.40
2018-09-27T06:20:42.329Z,60.60
2018-09-27T06:22:45.292Z,60.60
2018-09-27T06:24:49.028Z,61.60
2018-09-27T06:26:51.946Z,60.70
2018-09-27T06:28:54.878Z,60.90
2018-09-27T06:30:58.574Z,61.10
2018-09-27T06:33:02.253Z,61.10
2018-09-27T06:35:06.731Z,61.20
2018-09-27T06:37:10.516Z,60.60
2018-09-27T06:39:13.433Z,61.30
2018-09-27T06:41:16.357Z,61.30
2018-09-27T06:43:20.058Z,60.40
2018-09-27T06:45:23.732Z,60.50
2018-09-27T06:47:26.637Z,60.40
2018-09-27T06:49:30.349Z,60.70
2018-09-27T06:51:34.246Z,60.80
2018-09-27T06:53:38.301Z,60.80
2018-09-27T06:55:41.573Z,60.80
2018-09-27T06:57:44.372Z,60.90
2018-09-27T06:59:47.984Z,61.00
2018-09-27T07:01:50.924Z,61.00
2018-09-27T07:03:53.829Z,61.00
2018-09-27T07:05:56.761Z,61.10
2018-09-27T07:08:00.567Z,61.20
2018-09-27T07:10:04.369Z,61.20
2018-09-27T07:12:08.130Z,61.20
2018-09-27T07:14:12.077Z,61.10
2018-09-27T07:16:15.757Z,61.10
2018-09-27T07:18:19.440Z,61.00
2018-09-27T07:20:22.426Z,61.10
2018-09-27T07:22:25.381Z,61.10
2018-09-27T07:24:28.302Z,61.10
2018-09-27T07:26:32.862Z,61.10
2018-09-27T07:28:35.701Z,61.10
2018-09-27T07:30:39.388Z,61.20
2018-09-27T07:32:42.386Z,61.10
2018-09-27T07:34:45.367Z,61.10
2018-09-27T07:36:48.292Z,61.00
2018-09-27T07:38:52.021Z,61.00
2018-09-27T07:40:54.952Z,61.00
2018-09-27T07:50:11.728Z,60.80
2018-09-27T08:00:10.493Z,59.00
2018-09-27T08:10:13.267Z,58.70
2018-09-27T08:20:11.528Z,58.70
2018-09-27T08:30:13.509Z,58.70
2018-09-27T08:40:12.964Z,58.50
2018-09-27T08:50:10.980Z,58.50
2018-09-27T09:00:04.718Z,58.40
2018-09-27T09:02:07.661Z,58.30
2018-09-27T09:04:11.349Z,59.50
2018-09-27T09:06:14.467Z,59.00
2018-09-27T09:08:17.442Z,59.20
2018-09-27T09:10:21.124Z,58.80
2018-09-27T09:12:24.851Z,58.40
2018-09-27T09:14:28.564Z,58.20
2018-09-27T09:16:31.509Z,58.10
2018-09-27T09:18:35.335Z,57.00
2018-09-27T09:20:39.019Z,57.30
2018-09-27T09:22:42.708Z,57.10
2018-09-27T09:24:46.424Z,56.90
2018-09-27T09:26:50.125Z,56.60
2018-09-27T09:28:53.084Z,56.50
2018-09-27T09:30:56.101Z,56.40
2018-09-27T09:32:59.785Z,56.10
2018-09-27T09:35:03.517Z,55.90
2018-09-27T09:37:06.449Z,55.90
2018-09-27T09:39:09.380Z,55.80
2018-09-27T09:41:12.328Z,55.70
2018-09-27T09:43:16.008Z,55.30
2018-09-27T09:45:19.018Z,55.30
2018-09-27T09:47:23.109Z,55.90
2018-09-27T09:49:26.121Z,55.20
2018-09-27T09:51:29.798Z,55.20
2018-09-27T09:53:33.524Z,55.20
2018-09-27T09:55:36.468Z,55.10
2018-09-27T09:57:39.448Z,55.10
2018-09-27T09:59:43.044Z,55.00
2018-09-27T10:01:47.328Z,55.00
2018-09-27T10:03:50.485Z,55.00
2018-09-27T10:05:53.887Z,54.80
2018-09-27T10:07:57.477Z,54.80
2018-09-27T10:10:02.097Z,54.80
2018-09-27T10:12:05.185Z,54.70
2018-09-27T10:14:08.864Z,54.70
2018-09-27T10:16:12.595Z,54.90
2018-09-27T10:18:15.521Z,54.80
2018-09-27T10:20:18.617Z,54.90
2018-09-27T10:22:21.541Z,54.70
2018-09-27T10:24:25.217Z,54.70
2018-09-27T10:26:29.033Z,54.50
2018-09-27T10:28:32.045Z,54.40
2018-09-27T10:30:34.969Z,54.30
2018-09-27T10:32:37.920Z,54.00
2018-09-27T10:34:40.924Z,53.80
2018-09-27T10:36:44.546Z,53.70
2018-09-27T10:38:48.468Z,53.90
2018-09-27T10:40:52.145Z,53.80
2018-09-27T10:42:55.888Z,53.80
2018-09-27T10:44:59.007Z,53.80
2018-09-27T10:47:01.938Z,53.90
2018-09-27T10:49:04.870Z,54.50
2018-09-27T10:51:07.840Z,54.30
2018-09-27T10:53:10.782Z,53.90
2018-09-27T10:55:14.473Z,54.00
2018-09-27T10:57:18.313Z,53.80
2018-09-27T10:59:21.126Z,53.70
2018-09-27T11:01:24.057Z,53.60
2018-09-27T11:03:27.029Z,53.50
2018-09-27T11:05:30.724Z,53.30
2018-09-27T11:07:34.408Z,52.90
2018-09-27T11:09:37.550Z,52.90
2018-09-27T11:11:40.473Z,52.70
2018-09-27T11:13:44.169Z,52.70
2018-09-27T11:15:47.899Z,52.50
2018-09-27T11:17:51.584Z,52.40
2018-09-27T11:19:56.046Z,52.20
2018-09-27T11:21:59.011Z,52.10
2018-09-27T11:24:02.659Z,51.70
2018-09-27T11:26:05.636Z,51.90
2018-09-27T11:28:09.383Z,52.50
2018-09-27T11:30:20.044Z,52.20
2018-09-27T11:32:28.488Z,52.30
2018-09-27T11:34:31.408Z,52.70
2018-09-27T11:36:34.325Z,52.40
2018-09-27T11:38:37.481Z,51.90
2018-09-27T11:40:40.407Z,51.40
2018-09-27T11:42:43.364Z,51.30
2018-09-27T11:44:47.273Z,51.10
2018-09-27T11:46:50.949Z,51.40
2018-09-27T11:48:54.698Z,51.50
2018-09-27T11:50:58.475Z,51.50
2018-09-27T11:53:02.161Z,51.50
2018-09-27T11:55:06.088Z,51.80
2018-09-27T11:57:09.036Z,51.80
2018-09-27T11:59:13.497Z,51.30
2018-09-27T12:01:17.208Z,51.30
2018-09-27T12:03:20.116Z,51.30
2018-09-27T12:05:23.043Z,51.00
2018-09-27T12:07:26.795Z,52.10
2018-09-27T12:09:29.691Z,52.10
2018-09-27T12:11:32.629Z,52.60
2018-09-27T12:13:36.000Z,52.10
2018-09-27T12:15:39.704Z,51.60
2018-09-27T12:17:43.458Z,51.60
2018-09-27T12:19:46.475Z,51.50
2018-09-27T12:21:49.382Z,51.10
2018-09-27T12:23:52.296Z,51.10
2018-09-27T12:25:55.335Z,51.40
2018-09-27T12:27:59.008Z,52.20
2018-09-27T12:30:03.431Z,51.70
2018-09-27T12:32:07.249Z,51.60
2018-09-27T12:34:11.015Z,51.30
2018-09-27T12:36:13.893Z,51.20
2018-09-27T12:38:16.853Z,51.80
2018-09-27T12:40:19.796Z,52.10
2018-09-27T12:42:23.559Z,51.70
2018-09-27T12:44:26.444Z,51.60
2018-09-27T12:46:29.566Z,51.30
2018-09-27T12:48:32.479Z,51.70
2018-09-27T12:50:36.155Z,51.80
2018-09-27T12:52:40.017Z,51.70
2018-09-27T12:54:42.909Z,51.60
2018-09-27T12:56:46.605Z,51.90
2018-09-27T12:58:50.305Z,51.30
2018-09-27T13:00:53.525Z,51.20
2018-09-27T13:02:56.636Z,52.00
2018-09-27T13:04:59.396Z,52.50
2018-09-27T13:07:02.354Z,51.40
2018-09-27T13:09:06.117Z,51.80
2018-09-27T13:11:09.866Z,50.90
2018-09-27T13:13:13.023Z,50.80
2018-09-27T13:15:17.348Z,49.40
2018-09-27T13:17:21.093Z,49.40
2018-09-27T13:19:24.823Z,50.10
2018-09-27T13:21:27.721Z,50.00
2018-09-27T13:23:32.152Z,49.30
2018-09-27T13:25:36.019Z,48.90
2018-09-27T13:27:38.921Z,48.80
2018-09-27T13:29:43.387Z,47.50
2018-09-27T13:31:46.304Z,47.50
2018-09-27T13:33:49.245Z,47.00
2018-09-27T13:35:52.319Z,46.60
2018-09-27T13:37:56.839Z,47.40
2018-09-27T13:40:00.552Z,48.00
2018-09-27T13:42:04.253Z,47.40
2018-09-27T13:44:07.172Z,47.30
2018-09-27T13:46:10.304Z,47.30
2018-09-27T13:48:14.024Z,47.10
2018-09-27T13:50:16.944Z,47.10
2018-09-27T13:52:19.972Z,48.00
2018-09-27T13:54:23.669Z,47.40
2018-09-27T13:56:27.280Z,47.20
2018-09-27T13:58:30.197Z,46.50
2018-09-27T14:00:33.244Z,47.90
2018-09-27T14:02:36.273Z,47.40
2018-09-27T14:04:39.203Z,46.70
2018-09-27T14:06:42.924Z,48.30
2018-09-27T14:08:45.948Z,48.30
2018-09-27T14:10:48.871Z,47.90
2018-09-27T14:12:54.377Z,46.50
2018-09-27T14:14:57.293Z,46.40
2018-09-27T14:17:01.205Z,44.40
2018-09-27T14:19:04.041Z,44.20
2018-09-27T14:21:06.960Z,43.50
2018-09-27T14:23:10.247Z,43.20
2018-09-27T14:25:13.925Z,42.00
2018-09-27T14:27:18.337Z,40.90
2018-09-27T14:29:23.378Z,40.50
2018-09-27T14:31:26.377Z,40.40
2018-09-27T14:33:30.049Z,39.20
2018-09-27T14:35:33.007Z,39.10
2018-09-27T14:37:35.927Z,38.40
2018-09-27T14:39:38.830Z,38.00
2018-09-27T14:41:42.555Z,37.40
2018-09-27T14:43:45.585Z,37.30
2018-09-27T14:45:48.497Z,37.00
2018-09-27T14:47:52.460Z,35.80
2018-09-27T14:49:55.332Z,35.60
2018-09-27T14:51:58.262Z,35.20
2018-09-27T14:54:01.357Z,35.00
2018-09-27T14:56:04.345Z,35.20
2018-09-27T14:58:08.127Z,35.60
2018-09-27T15:00:11.864Z,36.00
2018-09-27T15:02:14.811Z,35.80
2018-09-27T15:04:18.613Z,34.60
2018-09-27T15:06:22.280Z,34.10
2018-09-27T15:08:25.192Z,34.00
2018-09-27T15:10:28.999Z,33.20
2018-09-27T15:12:31.844Z,33.00
2018-09-27T15:14:34.796Z,33.20
2018-09-27T15:16:37.817Z,33.10
2018-09-27T15:18:40.733Z,32.80
2018-09-27T15:20:43.648Z,33.40
2018-09-27T15:22:46.664Z,33.50
2018-09-27T15:24:50.363Z,34.00
2018-09-27T15:26:53.305Z,33.90
2018-09-27T15:28:56.207Z,34.40
2018-09-27T15:30:59.152Z,34.40
2018-09-27T15:33:02.221Z,34.40
2018-09-27T15:35:05.889Z,35.30
2018-09-27T15:37:10.311Z,36.00
2018-09-27T15:39:14.740Z,35.50
2018-09-27T15:41:17.644Z,35.40
2018-09-27T15:43:20.568Z,35.60
2018-09-27T15:45:23.515Z,35.70
2018-09-27T15:47:26.428Z,35.60
2018-09-27T15:49:29.337Z,35.50
2018-09-27T15:51:32.332Z,36.20
2018-09-27T15:53:35.189Z,35.70
2018-09-27T15:55:38.215Z,35.60
2018-09-27T15:57:42.011Z,36.60
2018-09-27T15:59:45.671Z,37.40
2018-09-27T16:01:48.639Z,37.30
2018-09-27T16:03:51.537Z,36.80
2018-09-27T16:05:54.510Z,36.30
2018-09-27T16:07:57.461Z,36.30
2018-09-27T16:10:00.376Z,36.20
2018-09-27T16:12:03.302Z,36.10
2018-09-27T16:14:07.104Z,36.10
2018-09-27T16:16:10.768Z,36.00
2018-09-27T16:18:13.788Z,35.90
2018-09-27T16:20:17.794Z,36.20
2018-09-27T16:22:21.465Z,36.30
2018-09-27T16:24:24.390Z,36.20
2018-09-27T16:26:27.328Z,36.20
2018-09-27T16:28:31.744Z,36.40
2018-09-27T16:30:34.672Z,36.30
2018-09-27T16:32:37.846Z,36.50
2018-09-27T16:34:41.512Z,37.10
2018-09-27T16:36:44.533Z,37.00
2018-09-27T16:38:48.230Z,37.20
2018-09-27T16:40:51.149Z,37.10
2018-09-27T16:42:54.062Z,37.10
2018-09-27T16:44:57.213Z,37.20
2018-09-27T16:47:00.125Z,37.20
2018-09-27T16:49:03.133Z,37.30
2018-09-27T16:51:06.022Z,37.30
2018-09-27T16:53:08.949Z,37.20
2018-09-27T16:55:11.985Z,37.40
2018-09-27T16:57:15.669Z,38.00
2018-09-27T16:59:18.667Z,37.90
2018-09-27T17:01:22.400Z,38.00
2018-09-27T17:03:25.305Z,37.90
2018-09-27T17:05:28.243Z,38.00
2018-09-27T17:07:32.037Z,37.80
2018-09-27T17:09:35.712Z,38.10
2018-09-27T17:11:38.623Z,37.90
2018-09-27T17:13:42.362Z,38.40
2018-09-27T17:15:45.280Z,38.30
2018-09-27T17:17:48.971Z,38.70
2018-09-27T17:19:51.935Z,38.70
2018-09-27T17:21:54.881Z,38.90
2018-09-27T17:23:57.927Z,39.20
2018-09-27T17:26:01.641Z,40.50
2018-09-27T17:28:04.631Z,39.80
2018-09-27T17:30:08.692Z,40.20
2018-09-27T17:32:11.743Z,40.10
2018-09-27T17:34:17.734Z,40.30
2018-09-27T17:36:21.349Z,40.50
2018-09-27T17:38:24.269Z,40.80
2018-09-27T17:40:27.275Z,40.90
2018-09-27T17:42:30.700Z,41.10
2018-09-27T17:44:33.814Z,41.30
2018-09-27T17:46:37.577Z,41.70
2018-09-27T17:48:40.629Z,41.60
2018-09-27T17:50:43.568Z,41.90
2018-09-27T17:52:47.285Z,43.00
2018-09-27T17:54:51.721Z,42.60
2018-09-27T17:56:54.679Z,42.60
2018-09-27T17:58:58.393Z,43.20
2018-09-27T18:01:02.298Z,43.30
2018-09-27T18:03:05.242Z,43.20
2018-09-27T18:05:18.983Z,43.50
2018-09-27T18:07:14.337Z,43.60
2018-09-27T18:09:17.249Z,43.90
2018-09-27T18:11:20.559Z,44.00
2018-09-27T18:13:23.612Z,44.20
2018-09-27T18:15:26.708Z,44.40
2018-09-27T18:17:29.869Z,44.50
2018-09-27T18:19:32.851Z,44.70
2018-09-27T18:21:35.789Z,44.80
2018-09-27T18:23:39.484Z,45.60
2018-09-27T18:25:42.606Z,45.00
2018-09-27T18:27:45.445Z,45.10
2018-09-27T18:29:48.374Z,45.10
2018-09-27T18:31:52.090Z,45.40
2018-09-27T18:33:55.012Z,45.40
2018-09-27T18:35:59.561Z,46.40
2018-09-27T18:38:03.676Z,45.70
2018-09-27T18:40:06.529Z,45.70
2018-09-27T18:42:10.216Z,46.50
2018-09-27T18:44:13.174Z,45.90
2018-09-27T18:46:16.163Z,46.10
2018-09-27T18:48:19.148Z,46.20
2018-09-27T18:50:22.294Z,46.30
2018-09-27T18:52:25.228Z,46.40
2018-09-27T18:54:28.148Z,46.60
2018-09-27T18:56:31.128Z,46.70
2018-09-27T18:58:35.126Z,46.90
2018-09-27T19:00:38.799Z,47.00
2018-09-27T19:02:41.884Z,47.00
2018-09-27T19:04:44.849Z,47.10
2018-09-27T19:06:47.855Z,47.20
2018-09-27T19:08:50.990Z,47.40
2018-09-27T19:10:53.905Z,47.60
2018-09-27T19:12:56.947Z,47.50
2018-09-27T19:15:00.954Z,47.80
2018-09-27T19:17:04.209Z,47.80
2018-09-27T19:19:07.428Z,47.90
2018-09-27T19:21:10.511Z,47.90
2018-09-27T19:23:14.289Z,48.40
2018-09-27T19:25:18.813Z,48.40
2018-09-27T19:27:21.736Z,48.30
2018-09-27T19:29:24.709Z,47.90
2018-09-27T19:31:27.660Z,48.50
2018-09-27T19:33:31.357Z,48.80
2018-09-27T19:35:35.038Z,49.00
2018-09-27T19:37:38.105Z,48.70
2018-09-27T19:39:41.029Z,48.80
2018-09-27T19:41:44.725Z,49.20
2018-09-27T19:43:48.461Z,49.10
2018-09-27T19:45:51.377Z,49.10
2018-09-27T19:47:54.349Z,49.10
2018-09-27T19:49:58.254Z,49.30
2018-09-27T19:52:01.239Z,49.30
2018-09-27T19:54:05.005Z,49.40
2018-09-27T19:56:08.206Z,49.50
2018-09-27T19:58:11.910Z,49.80
2018-09-27T20:00:17.125Z,49.70
2018-09-27T20:02:21.066Z,49.80
2018-09-27T20:04:23.994Z,49.80
2018-09-27T20:06:27.668Z,49.90
2018-09-27T20:08:30.779Z,49.90
2018-09-27T20:10:33.703Z,50.00
2018-09-27T20:12:36.628Z,50.00
2018-09-27T20:14:39.590Z,50.10
2018-09-27T20:16:42.573Z,50.20
2018-09-27T20:18:45.452Z,50.30
2018-09-27T20:20:48.414Z,50.30
2018-09-27T20:22:51.414Z,50.30
2018-09-27T20:24:54.316Z,50.40
2018-09-27T20:26:57.281Z,50.40
2018-09-27T20:29:00.200Z,50.60
2018-09-27T20:31:03.889Z,50.80
2018-09-27T20:33:07.637Z,51.40
2018-09-27T20:35:10.549Z,50.70
2018-09-27T20:37:13.476Z,50.80
2018-09-27T20:39:17.198Z,50.70
2018-09-27T20:41:20.132Z,50.70
2018-09-27T20:43:23.274Z,50.80
2018-09-27T20:45:26.213Z,50.80
2018-09-27T20:47:29.928Z,51.00
2018-09-27T20:49:33.034Z,51.00
2018-09-27T20:51:35.945Z,50.90
2018-09-27T20:53:38.980Z,50.90
2018-09-27T20:55:41.936Z,51.00
2018-09-27T20:57:44.866Z,51.10
2018-09-27T20:59:47.792Z,51.20
2018-09-27T21:01:50.900Z,51.20
2018-09-27T21:03:54.593Z,51.50
2018-09-27T21:05:58.280Z,51.30
2018-09-27T21:08:01.243Z,51.30
2018-09-27T21:10:04.160Z,51.30
2018-09-27T21:12:07.845Z,51.40
2018-09-27T21:14:10.837Z,51.40
2018-09-27T21:16:14.524Z,52.00
2018-09-27T21:18:17.484Z,51.40
2018-09-27T21:20:20.437Z,51.40
2018-09-27T21:22:23.397Z,51.50
2018-09-27T21:24:28.522Z,52.00
2018-09-27T21:26:32.218Z,52.10
2018-09-27T21:28:35.902Z,51.50
2018-09-27T21:30:38.841Z,51.40
2018-09-27T21:32:41.801Z,51.40
2018-09-27T21:34:45.480Z,51.40
2018-09-27T21:36:50.125Z,51.30
2018-09-27T21:38:53.142Z,51.30
2018-09-27T21:40:56.091Z,51.30
2018-09-27T21:42:59.792Z,51.40
2018-09-27T21:45:03.488Z,51.30
2018-09-27T21:47:07.168Z,51.30
2018-09-27T21:49:10.996Z,51.40
2018-09-27T21:51:13.921Z,51.30
2018-09-27T21:53:16.879Z,51.30
2018-09-27T21:55:20.591Z,51.60
2018-09-27T21:57:23.509Z,51.60
2018-09-27T21:59:26.522Z,51.80
2018-09-27T22:01:30.324Z,52.20
2018-09-27T22:03:34.025Z,52.40
2018-09-27T22:05:37.738Z,52.60
2018-09-27T22:07:40.656Z,52.50
2018-09-27T22:09:43.587Z,52.50
2018-09-27T22:11:47.272Z,52.30
2018-09-27T22:13:50.969Z,52.80
2018-09-27T22:15:54.653Z,52.90
2018-09-27T22:17:57.684Z,52.90
2018-09-27T22:20:00.613Z,53.00
2018-09-27T22:22:03.519Z,53.00
2018-09-27T22:24:06.632Z,53.00
2018-09-27T22:26:09.553Z,53.10
2018-09-27T22:28:12.742Z,53.20
2018-09-27T22:30:15.715Z,53.20
2018-09-27T22:32:18.655Z,53.40
2018-09-27T22:34:21.587Z,53.50
2018-09-27T22:36:24.529Z,53.50
2018-09-27T22:38:27.452Z,53.50
2018-09-27T22:40:30.485Z,53.60
2018-09-27T22:42:34.155Z,53.90
2018-09-27T22:44:37.096Z,53.80
2018-09-27T22:46:40.168Z,53.80
2018-09-27T22:48:43.091Z,53.90
2018-09-27T22:50:45.999Z,53.90
2018-09-27T22:52:49.819Z,54.00
2018-09-27T22:54:53.500Z,54.10
2018-09-27T22:56:57.194Z,54.20
2018-09-27T22:59:00.142Z,54.10
2018-09-27T23:01:03.059Z,54.20
2018-09-27T23:03:06.063Z,54.20
2018-09-27T23:05:09.777Z,54.30
2018-09-27T23:07:12.713Z,54.10
2018-09-27T23:09:15.636Z,54.20
2018-09-27T23:11:18.588Z,54.30
2018-09-27T23:13:22.309Z,54.40
2018-09-27T23:15:26.047Z,54.30
2018-09-27T23:17:28.960Z,54.20
2018-09-27T23:19:33.388Z,54.30
2018-09-27T23:21:37.346Z,54.30
2018-09-27T23:23:40.257Z,54.30
2018-09-27T23:25:43.280Z,54.40
2018-09-27T23:27:46.996Z,54.60
2018-09-27T23:29:49.954Z,54.50
2018-09-27T23:31:53.619Z,55.30
2018-09-27T23:33:56.560Z,54.70
2018-09-27T23:35:59.485Z,54.80
2018-09-27T23:38:02.509Z,54.70
2018-09-27T23:40:06.210Z,54.90
2018-09-27T23:42:09.897Z,54.90
2018-09-27T23:44:13.585Z,54.90
2018-09-27T23:46:16.797Z,54.90
2018-09-27T23:48:19.880Z,54.90
2018-09-27T23:50:23.544Z,55.10
2018-09-27T23:52:26.499Z,55.00
2018-09-27T23:54:29.407Z,55.10
2018-09-27T23:56:32.333Z,55.10
2018-09-27T23:58:35.307Z,55.20
